This is the latest recevied weather packets stored in our database for station/object KB2FWP. If no packets are shown the sender has not sent any weather packets the latest 10 day(s).
| Time | Temp. | Humidity | Pressure | Rain* | Wind** | Luminosity | Snow |
|---|---|---|---|---|---|---|---|
| 1777844713 | 16.11° C | 30% | 1011.6 hPa | 0 mm | - | - | - |
| 1777843814 | 15.56° C | 31% | 1011.5 hPa | 0 mm | - | - | - |
| 1777842913 | 16.11° C | 31% | 1011.2 hPa | 0 mm | - | - | - |
| 1777842015 | 15.56° C | 33% | 1011.3 hPa | 0 mm | - | - | - |
| 1777841111 | 16.11° C | 33% | 1011.3 hPa | 0 mm | - | - | - |
| 1777840210 | 16.11° C | 32% | 1011.2 hPa | 0 mm | - | - | - |
| 1777839309 | 16.11° C | 34% | 1011.3 hPa | 0 mm | - | - | - |
| 1777838408 | 15.56° C | 34% | 1011.7 hPa | 0 mm | - | - | - |
| 1777837506 | 15.56° C | 35% | 1011.7 hPa | 0 mm | - | - | - |
| 1777836602 | 15° C | 37% | 1011.9 hPa | 0 mm | - | - | - |
| 1777835701 | 13.89° C | 37% | 1012.1 hPa | 0 mm | - | - | - |
| 1777834805 | 14.44° C | 37% | 1012.1 hPa | 0 mm | - | - | - |
| 1777833962 | 14.44° C | 36% | 1012.2 hPa | 0 mm | - | - | - |
| 1777833070 | 14.44° C | 36% | 1012.2 hPa | 0 mm | - | - | - |
| 1777832158 | 14.44° C | 36% | 1012 hPa | 0 mm | - | - | - |
| 1777831259 | 13.89° C | 37% | 1011.9 hPa | 0 mm | - | - | - |
| 1777830353 | 13.33° C | 37% | 1012 hPa | 0 mm | - | - | - |
| 1777829471 | 13.33° C | 38% | 1012.1 hPa | 0 mm | - | - | - |
| 1777828553 | 14.44° C | 36% | 1012 hPa | 0 mm | - | - | - |
| 1777827648 | 13.89° C | 37% | 1012 hPa | 0 mm | - | - | - |
| 1777826744 | 12.78° C | 43% | 1012.2 hPa | 0 mm | - | - | - |
| 1777825840 | 11.67° C | 43% | 1012.2 hPa | 0 mm | - | - | - |
| 1777824940 | 12.22° C | 43% | 1012.3 hPa | 0 mm | - | - | - |
| 1777824040 | 11.11° C | 46% | 1012.4 hPa | 0 mm | - | - | - |
| 1777823198 | 11.67° C | 45% | 1012.4 hPa | 0 mm | - | - | - |
* Rain latest hour (hover to see other rain measurements)
** Current wind speed in m/s (hover to see current wind gust speed)